Time;durP1;ratioP1;P1;durP2;ratioP2;P2;SDS_P1;SDS_P2;PMS_P1;PMS_P2;Temp;Humidity;BMP_temperature;BMP_pressure;BME280_temperature;BME280_humidity;BME280_pressure;Samples;Min_cycle;Max_cycle;Signal;HPM_P1;HPM_P2
2023/04/03 00:02:25;;;;;;;2.37;1.97;;;;;;;19.33;56.04;98050.28;4957215;28;20352;-89
2023/04/03 00:04:52;;;;;;;1.97;1.87;;;;;;;19.52;56.00;98075.84;4957762;28;20246;-89
2023/04/03 00:07:18;;;;;;;2.20;2.00;;;;;;;19.50;55.95;98081.66;4923306;28;20236;-89
2023/04/03 00:09:45;;;;;;;2.20;2.00;;;;;;;19.36;56.17;98047.03;4938745;28;20200;-90
2023/04/03 00:12:12;;;;;;;3.27;2.20;;;;;;;19.37;55.94;98059.84;4919348;28;20255;-89
2023/04/03 00:14:38;;;;;;;2.30;1.83;;;;;;;19.45;56.01;98067.84;4950733;28;20219;-89
2023/04/03 00:17:05;;;;;;;1.93;1.83;;;;;;;19.23;56.50;98029.38;4957962;28;20622;-89
2023/04/03 00:19:32;;;;;;;1.83;1.73;;;;;;;19.30;55.98;98041.66;4950844;28;20653;-89
2023/04/03 00:21:58;;;;;;;2.20;1.90;;;;;;;19.28;55.76;98043.25;4914831;29;20220;-89
2023/04/03 00:24:25;;;;;;;2.10;1.90;;;;;;;19.36;56.09;98060.63;4939577;28;20720;-89
2023/04/03 00:26:51;;;;;;;1.90;1.80;;;;;;;19.60;55.96;98097.44;4957261;28;20734;-90
2023/04/03 00:29:18;;;;;;;2.27;1.93;;;;;;;19.56;55.77;98087.03;4956952;28;20294;-89
2023/04/03 00:31:45;;;;;;;3.27;2.10;;;;;;;19.59;56.46;98089.72;4938085;28;20221;-90
2023/04/03 00:34:11;;;;;;;1.97;1.87;;;;;;;19.50;56.33;98077.44;4931127;29;20322;-89
2023/04/03 00:36:38;;;;;;;2.23;2.00;;;;;;;19.51;55.88;98081.72;4956736;28;20298;-89
2023/04/03 00:39:05;;;;;;;1.80;1.70;;;;;;;19.12;55.85;98011.06;4922369;29;20267;-89
2023/04/03 00:41:32;;;;;;;1.77;1.67;;;;;;;19.41;56.14;98060.84;4931919;28;20307;-89
2023/04/03 00:43:59;;;;;;;1.77;1.67;;;;;;;19.30;55.52;98036.56;4918205;28;20556;-89
2023/04/03 00:46:25;;;;;;;2.27;2.07;;;;;;;19.65;55.76;98112.94;4932336;28;20216;-89
2023/04/03 00:48:52;;;;;;;2.03;1.93;;;;;;;19.47;56.16;98084.06;4939496;28;20223;-89
2023/04/03 00:51:21;;;;;;;1.83;1.70;;;;;;;19.24;55.96;98029.44;4936174;28;20291;-89
2023/04/03 00:53:50;;;;;;;1.97;1.77;;;;;;;19.42;55.85;98060.06;4952774;28;20243;-89
2023/04/03 00:56:18;;;;;;;1.90;1.80;;;;;;;19.61;55.85;98099.22;4940310;28;20252;-89
2023/04/03 00:58:48;;;;;;;1.87;1.67;;;;;;;19.42;55.85;98058.38;4918453;29;20207;-89
2023/04/03 01:01:16;;;;;;;2.10;1.90;;;;;;;19.35;55.86;98040.16;4955108;28;20196;-89
2023/04/03 01:03:43;;;;;;;2.03;1.93;;;;;;;19.53;55.66;98077.59;4961283;28;20208;-89
2023/04/03 01:06:10;;;;;;;1.70;1.60;;;;;;;19.48;55.80;98061.19;4923895;28;20210;-89
2023/04/03 01:08:36;;;;;;;2.20;2.00;;;;;;;19.48;55.97;98076.47;4926032;28;20200;-89
2023/04/03 01:11:03;;;;;;;3.53;1.90;;;;;;;19.58;55.84;98093.09;4950960;28;20255;-89
2023/04/03 01:13:31;;;;;;;1.87;1.70;;;;;;;19.53;55.93;98087.78;4923624;28;20718;-90
2023/04/03 01:16:00;;;;;;;1.90;1.80;;;;;;;19.39;55.98;98070.97;4941090;28;20672;-89
2023/04/03 01:18:27;;;;;;;1.90;1.80;;;;;;;19.39;55.67;98062.47;4942764;28;20291;-89
2023/04/03 01:21:28;;;;;;;1.90;1.80;;;;;;;19.44;55.88;98078.81;4957535;28;20658;-89
2023/04/03 01:24:21;;;;;;;1.70;1.60;;;;;;;19.65;55.80;98115.50;4955769;28;20572;-89
2023/04/03 01:26:48;;;;;;;1.80;1.70;;;;;;;19.46;55.84;98089.97;4933347;28;20231;-90
2023/04/03 01:29:14;;;;;;;1.80;1.70;;;;;;;19.49;55.79;98100.31;4959924;28;20210;-89
2023/04/03 01:31:55;;;;;;;1.83;1.73;;;;;;;19.41;55.81;98083.78;4923461;28;20220;-89
2023/04/03 01:34:22;;;;;;;1.90;1.80;;;;;;;19.43;55.45;98094.94;4925752;28;20221;-89
2023/04/03 01:36:50;;;;;;;1.90;1.80;;;;;;;19.49;55.55;98105.41;4941389;28;20208;-89
2023/04/03 01:39:17;;;;;;;2.07;1.93;;;;;;;19.62;55.62;98125.56;4967316;28;20209;-90
2023/04/03 01:41:43;;;;;;;1.90;1.80;;;;;;;19.35;55.51;98078.41;4929384;28;20228;-89
2023/04/03 01:44:10;;;;;;;1.97;1.77;;;;;;;19.52;55.79;98114.09;4975092;28;20199;-89
2023/04/03 01:46:37;;;;;;;2.33;1.97;;;;;;;19.34;55.55;98082.66;4935799;28;20201;-89
2023/04/03 01:49:04;;;;;;;1.80;1.70;;;;;;;19.41;55.82;98092.31;4924982;29;20760;-88
2023/04/03 01:51:31;;;;;;;1.97;1.87;;;;;;;19.50;55.75;98110.59;4937407;28;20224;-89
2023/04/03 01:53:57;;;;;;;2.00;1.80;;;;;;;19.37;55.71;98076.81;4932520;28;20204;-89
2023/04/03 01:56:24;;;;;;;1.77;1.67;;;;;;;19.08;55.82;98037.19;4941182;28;20235;-89
2023/04/03 01:58:51;;;;;;;1.90;1.80;;;;;;;19.50;55.64;98105.47;4943707;28;20223;-90
2023/04/03 02:01:18;;;;;;;1.90;1.80;;;;;;;19.57;55.79;98120.25;4939005;28;20250;-89
2023/04/03 02:03:44;;;;;;;2.03;1.93;;;;;;;19.51;55.69;98104.66;4908808;29;20576;-89
2023/04/03 02:06:11;;;;;;;2.30;1.90;;;;;;;19.28;55.98;98068.75;4954397;28;20215;-90
2023/04/03 02:08:38;;;;;;;1.80;1.70;;;;;;;19.44;55.77;98095.00;4959101;28;20199;-89
2023/04/03 02:11:05;;;;;;;2.10;1.90;;;;;;;19.54;55.34;98114.16;4942793;28;20673;-89
2023/04/03 02:13:31;;;;;;;1.77;1.67;;;;;;;19.35;55.75;98071.63;4949941;28;20226;-89
2023/04/03 02:15:58;;;;;;;2.00;1.80;;;;;;;19.43;56.03;98092.38;4942727;28;20299;-89
2023/04/03 02:18:25;;;;;;;1.73;1.63;;;;;;;19.28;55.48;98059.44;4941480;28;20215;-89
2023/04/03 02:20:52;;;;;;;2.03;1.80;;;;;;;19.49;55.71;98097.75;4924533;28;20196;-89
2023/04/03 02:23:18;;;;;;;2.00;1.90;;;;;;;19.56;55.45;98107.44;4925150;28;20219;-89
2023/04/03 02:25:45;;;;;;;1.83;1.73;;;;;;;19.27;55.48;98056.81;4947623;28;20197;-89
2023/04/03 02:28:11;;;;;;;1.90;1.80;;;;;;;19.42;55.80;98088.94;4973293;28;20290;-89
2023/04/03 02:30:38;;;;;;;2.00;1.80;;;;;;;19.59;55.43;98117.78;4943431;28;20211;-89
2023/04/03 02:33:05;;;;;;;1.97;1.80;;;;;;;19.44;56.00;98091.56;4975514;28;20262;-89
2023/04/03 02:35:31;;;;;;;2.33;2.00;;;;;;;19.38;55.33;98084.53;4942934;28;20227;-89
2023/04/03 02:37:58;;;;;;;1.80;1.70;;;;;;;19.38;55.77;98081.09;4959170;28;20207;-89
2023/04/03 02:40:25;;;;;;;1.93;1.83;;;;;;;19.38;55.79;98074.31;4929097;28;20666;-88
2023/04/03 02:42:51;;;;;;;1.63;1.53;;;;;;;19.43;55.56;98083.06;4916765;28;20239;-90
2023/04/03 02:45:18;;;;;;;2.03;1.83;;;;;;;19.51;55.55;98099.56;4924766;28;20203;-90
2023/04/03 02:47:44;;;;;;;2.23;1.90;;;;;;;19.54;55.56;98109.06;4943004;28;20203;-89
2023/04/03 02:50:11;;;;;;;1.93;1.83;;;;;;;19.39;55.34;98078.63;4927535;28;20199;-89
2023/04/03 02:52:37;;;;;;;1.70;1.60;;;;;;;19.42;55.67;98086.41;4939398;28;20227;-89
2023/04/03 02:55:05;;;;;;;2.10;1.90;;;;;;;19.53;55.60;98107.28;4916373;29;20239;-89
2023/04/03 02:57:31;;;;;;;1.83;1.73;;;;;;;19.39;55.59;98087.97;4957754;28;20575;-89
2023/04/03 02:59:58;;;;;;;1.83;1.73;;;;;;;19.50;55.41;98099.50;4924155;29;20210;-90
2023/04/03 03:02:24;;;;;;;1.80;1.70;;;;;;;19.55;55.37;98108.25;4933098;28;20310;-89
2023/04/03 03:04:51;;;;;;;1.70;1.60;;;;;;;19.10;55.47;98030.47;4969940;28;20200;-89
2023/04/03 03:07:18;;;;;;;1.80;1.70;;;;;;;19.45;55.46;98100.97;4939591;28;20741;-89
2023/04/03 03:09:44;;;;;;;1.70;1.60;;;;;;;19.53;55.36;98107.28;4940813;28;20203;-89
2023/04/03 03:12:11;;;;;;;2.00;1.90;;;;;;;19.46;55.34;98095.97;4939288;28;20223;-89
2023/04/03 03:14:38;;;;;;;1.97;1.87;;;;;;;19.59;55.73;98117.78;4941837;28;20224;-89
2023/04/03 03:17:05;;;;;;;1.60;1.50;;;;;;;19.24;55.51;98054.94;4923256;28;20208;-89
2023/04/03 03:19:31;;;;;;;1.70;1.60;;;;;;;19.33;55.23;98070.69;4956649;28;20286;-89
2023/04/03 03:21:58;;;;;;;1.70;1.60;;;;;;;19.53;55.59;98107.28;4952360;28;20231;-89
2023/04/03 03:24:24;;;;;;;1.70;1.60;;;;;;;19.25;55.67;98058.38;4920495;28;20214;-89
2023/04/03 03:26:51;;;;;;;1.77;1.67;;;;;;;19.58;55.64;98113.50;4947164;28;20204;-90
2023/04/03 03:29:17;;;;;;;1.80;1.70;;;;;;;19.56;55.32;98107.44;4927056;28;20287;-89
2023/04/03 03:31:44;;;;;;;1.87;1.60;;;;;;;19.45;55.54;98088.25;4962389;28;20311;-89
2023/04/03 03:34:11;;;;;;;1.83;1.73;;;;;;;19.45;55.51;98086.53;4970212;28;20204;-89
2023/04/03 03:36:38;;;;;;;1.73;1.63;;;;;;;19.39;55.47;98077.75;4924318;28;20211;-89
2023/04/03 03:39:05;;;;;;;1.90;1.80;;;;;;;19.29;55.37;98058.63;4926527;28;20204;-89
2023/04/03 03:41:31;;;;;;;1.63;1.53;;;;;;;19.40;55.46;98084.59;4925618;28;20220;-90
2023/04/03 03:43:58;;;;;;;1.70;1.60;;;;;;;19.54;55.23;98103.97;4933513;28;20203;-89
2023/04/03 03:46:24;;;;;;;1.70;1.60;;;;;;;19.39;55.90;98077.75;4942402;28;20214;-89
2023/04/03 03:48:51;;;;;;;1.80;1.70;;;;;;;19.49;55.27;98096.09;4938395;28;20588;-89
2023/04/03 03:51:17;;;;;;;1.90;1.80;;;;;;;19.38;55.00;98076.88;4949312;28;20234;-89
2023/04/03 03:53:44;;;;;;;2.07;1.87;;;;;;;19.42;55.80;98086.41;4940762;28;20653;-89
2023/04/03 03:56:11;;;;;;;1.97;1.77;;;;;;;19.35;55.47;98066.53;4913987;29;20255;-89
2023/04/03 03:58:37;;;;;;;1.90;1.80;;;;;;;19.42;55.25;98080.44;4917213;28;20721;-89
2023/04/03 04:01:05;;;;;;;1.70;1.60;;;;;;;19.57;55.39;98104.94;4941017;28;20278;-89
2023/04/03 04:03:32;;;;;;;1.87;1.77;;;;;;;19.41;55.23;98076.13;4937261;28;20227;-89
2023/04/03 04:05:58;;;;;;;1.77;1.67;;;;;;;19.37;55.63;98069.16;4954711;28;20230;-89
2023/04/03 04:08:25;;;;;;;1.83;1.73;;;;;;;19.38;55.40;98076.88;4939573;28;20204;-88
2023/04/03 04:10:52;;;;;;;3.33;2.10;;;;;;;19.55;55.88;98098.94;4974506;28;20208;-89
2023/04/03 04:13:18;;;;;;;5.00;2.10;;;;;;;19.47;55.64;98084.94;4958926;28;20228;-90
2023/04/03 04:15:45;;;;;;;7.27;2.53;;;;;;;19.54;55.17;98103.97;4941909;28;20313;-90
2023/04/03 04:18:11;;;;;;;5.00;2.10;;;;;;;19.22;55.52;98050.56;4975410;28;20734;-88
2023/04/03 04:20:38;;;;;;;7.97;2.17;;;;;;;19.58;55.34;98109.28;4942040;28;20205;-90
2023/04/03 04:23:05;;;;;;;5.30;2.37;;;;;;;19.70;55.25;98145.53;4977643;28;20230;-90
2023/04/03 04:25:33;;;;;;;4.33;2.50;;;;;;;19.53;55.13;98100.53;4926842;28;20208;-89
2023/04/03 04:28:00;;;;;;;4.90;2.43;;;;;;;19.58;54.84;98105.84;4957052;28;20296;-89
2023/04/03 04:30:27;;;;;;;5.30;2.37;;;;;;;19.46;54.95;98079.78;4926185;28;20203;-89
2023/04/03 04:32:54;;;;;;;5.07;2.40;;;;;;;19.50;54.78;98092.75;4933132;28;20223;-89
2023/04/03 04:35:20;;;;;;;4.03;2.53;;;;;;;19.64;54.87;98124.84;4950963;28;20262;-90
2023/04/03 04:37:47;;;;;;;4.33;2.57;;;;;;;19.43;54.42;98098.38;4927025;28;20310;-89
2023/04/03 04:40:14;;;;;;;4.90;2.23;;;;;;;19.40;54.55;98079.50;4982169;28;20299;-90
2023/04/03 04:42:41;;;;;;;4.67;1.90;;;;;;;19.33;54.47;98077.47;4937809;28;20275;-90
2023/04/03 04:45:07;;;;;;;3.70;2.40;;;;;;;19.38;52.05;98081.97;4948358;28;20210;-89
2023/04/03 04:47:34;;;;;;;4.03;2.50;;;;;;;19.44;49.59;98089.91;4960799;28;20204;-90
2023/04/03 04:50:00;;;;;;;7.33;2.90;;;;;;;19.29;50.18;98079.00;4931151;29;20200;-89
2023/04/03 04:52:30;;;;;;;6.40;2.63;;;;;;;18.65;50.78;97963.81;4979243;28;20215;-93
2023/04/03 04:54:56;;;;;;;2.60;2.40;;;;;;;18.11;51.59;97876.38;4996364;28;20309;-94
2023/04/03 04:57:26;;;;;;;7.73;3.03;;;;;;;18.42;50.50;97927.09;4969291;28;20195;-91
2023/04/03 04:59:52;;;;;;;5.30;3.07;;;;;;;19.32;48.95;98081.69;4936451;28;20200;-88
2023/04/03 05:02:19;;;;;;;4.83;2.67;;;;;;;19.44;49.00;98104.31;4970372;28;20295;-90
2023/04/03 05:04:45;;;;;;;4.30;2.97;;;;;;;19.35;50.38;98096.25;4927469;28;20287;-89
2023/04/03 05:07:12;;;;;;;5.87;2.83;;;;;;;19.31;53.23;98099.47;4931707;28;20207;-89
2023/04/03 05:09:41;;;;;;;8.80;2.80;;;;;;;19.56;55.36;98130.38;4946508;28;20278;-90
2023/04/03 05:12:08;;;;;;;3.40;2.53;;;;;;;19.44;54.18;98110.28;4960822;28;20223;-89
2023/04/03 05:14:35;;;;;;;5.83;2.87;;;;;;;19.42;45.46;98094.03;4923941;28;20204;-89
2023/04/03 05:17:01;;;;;;;2.73;2.53;;;;;;;19.10;40.79;98062.75;4929249;28;20596;-89
2023/04/03 05:19:28;;;;;;;4.63;3.23;;;;;;;19.33;38.43;98106.38;4939368;29;20216;-90
2023/04/03 05:21:54;;;;;;;4.90;2.80;;;;;;;19.35;37.43;98114.97;4956330;28;20241;-90
2023/04/03 05:24:21;;;;;;;3.67;3.20;;;;;;;19.33;36.56;98124.19;4943193;28;20228;-89
2023/04/03 05:26:48;;;;;;;3.60;2.90;;;;;;;19.18;36.52;98104.72;4960507;28;20715;-90
2023/04/03 05:29:14;;;;;;;4.03;2.80;;;;;;;18.94;36.25;98070.44;4939021;28;20760;-90
2023/04/03 05:31:41;;;;;;;3.17;2.87;;;;;;;19.14;35.91;98119.00;4921058;28;20220;-89
2023/04/03 05:34:08;;;;;;;4.50;3.20;;;;;;;19.25;35.65;98150.09;4925287;29;20207;-90
2023/04/03 05:36:35;;;;;;;3.27;2.70;;;;;;;18.87;35.72;98099.84;4944021;28;20231;-89
2023/04/03 05:39:02;;;;;;;3.63;3.00;;;;;;;19.02;35.15;98130.28;4943362;28;20254;-90
2023/04/03 05:41:29;;;;;;;4.80;3.30;;;;;;;18.81;35.91;98104.66;4968183;28;20204;-90
2023/04/03 05:43:55;;;;;;;7.03;3.23;;;;;;;18.62;36.52;98114.69;4943967;28;20203;-90
2023/04/03 05:46:22;;;;;;;4.70;3.10;;;;;;;18.54;37.17;98097.31;4927407;28;20192;-89
2023/04/03 05:48:49;;;;;;;4.37;2.97;;;;;;;18.28;37.50;98073.06;4928217;28;20216;-91
2023/04/03 05:51:23;;;;;;;8.07;2.83;;;;;;;18.59;39.74;98127.28;4946891;28;20227;-86
2023/04/03 05:53:50;;;;;;;3.80;2.93;;;;;;;18.78;40.25;98163.06;4929217;28;20203;-89
2023/04/03 05:56:17;;;;;;;3.80;2.90;;;;;;;18.40;39.77;98103.38;4944875;28;20705;-88
2023/04/03 05:58:44;;;;;;;4.97;2.57;;;;;;;18.57;39.96;98130.56;4927676;28;20207;-87
2023/04/03 06:01:11;;;;;;;4.90;2.93;;;;;;;18.53;40.59;98126.97;4938349;28;20201;-89
2023/04/03 06:03:39;;;;;;;3.90;2.47;;;;;;;18.44;41.17;98115.47;4919668;28;20267;-90
2023/04/03 06:06:07;;;;;;;4.63;2.90;;;;;;;18.77;42.17;98174.03;4978624;28;20286;-90
2023/04/03 06:08:34;;;;;;;6.50;2.97;;;;;;;18.51;42.40;98122.59;4924535;28;20864;-89
2023/04/03 06:11:02;;;;;;;4.50;2.40;;;;;;;18.42;42.74;98110.31;4927929;28;20200;-89
2023/04/03 06:13:29;;;;;;;5.67;2.93;;;;;;;17.97;43.14;98041.78;4972093;28;20224;-92
2023/04/03 06:15:56;;;;;;;5.97;3.03;;;;;;;18.03;41.97;98031.94;4925879;28;20219;-90
2023/04/03 06:18:23;;;;;;;5.03;3.07;;;;;;;18.73;42.55;98156.84;4976122;28;20290;-89
2023/04/03 06:20:50;;;;;;;4.93;2.67;;;;;;;18.27;42.73;98064.53;4931003;28;20204;-90
2023/04/03 06:23:17;;;;;;;6.83;3.07;;;;;;;18.63;43.25;98131.75;4968879;28;20731;-88
2023/04/03 06:25:44;;;;;;;3.30;2.63;;;;;;;18.66;43.61;98133.56;4926192;28;20204;-90
2023/04/03 06:28:10;;;;;;;5.47;2.90;;;;;;;18.69;44.42;98132.06;4959471;28;20203;-90
2023/04/03 06:30:37;;;;;;;4.67;3.00;;;;;;;18.42;44.72;98084.84;4940455;28;20250;-90
2023/04/03 06:33:04;;;;;;;5.23;2.63;;;;;;;18.54;45.05;98097.31;4945896;28;20289;-90
2023/04/03 06:35:31;;;;;;;3.97;2.50;;;;;;;18.85;45.24;98148.94;4968739;28;20695;-90
2023/04/03 06:37:57;;;;;;;6.67;3.00;;;;;;;18.73;45.70;98133.94;4970404;28;20215;-90
2023/04/03 06:40:25;;;;;;;3.93;2.37;;;;;;;18.76;45.66;98134.09;4933625;29;20306;-89
2023/04/03 06:42:51;;;;;;;4.40;2.60;;;;;;;18.81;45.99;98145.41;4941191;28;20233;-90
2023/04/03 06:45:19;;;;;;;3.80;2.20;;;;;;;18.97;45.80;98168.25;4912788;28;20212;-90
2023/04/03 06:47:45;;;;;;;3.53;2.50;;;;;;;18.99;46.46;98171.75;4937773;28;20203;-90
2023/04/03 06:50:13;;;;;;;3.30;2.47;;;;;;;18.90;46.16;98156.03;4933933;28;20673;-90
2023/04/03 06:52:41;;;;;;;4.43;2.23;;;;;;;18.93;46.45;98151.09;4913034;28;20232;-90
2023/04/03 06:55:09;;;;;;;3.57;2.27;;;;;;;18.67;46.48;98105.63;4924302;28;20212;-90
2023/04/03 06:57:35;;;;;;;2.57;2.30;;;;;;;18.79;46.57;98135.91;4914531;28;20208;-89
2023/04/03 07:00:04;;;;;;;2.20;2.00;;;;;;;18.80;46.89;98137.69;4951719;28;20212;-90
2023/04/03 07:02:30;;;;;;;3.37;2.10;;;;;;;18.76;47.02;98131.53;4920184;28;20228;-90
2023/04/03 07:04:57;;;;;;;3.47;2.30;;;;;;;18.70;47.16;98118.50;4936821;28;20204;-90
2023/04/03 07:07:24;;;;;;;4.73;2.40;;;;;;;18.99;47.06;98165.78;4920982;28;20219;-90
2023/04/03 07:09:51;;;;;;;2.50;2.23;;;;;;;19.07;47.40;98183.19;4937564;28;20210;-90
2023/04/03 07:12:17;;;;;;;2.77;2.40;;;;;;;18.91;47.40;98152.69;4922303;28;20224;-90
2023/04/03 07:14:44;;;;;;;2.40;2.20;;;;;;;18.75;48.01;98129.81;4936712;28;20540;-89
2023/04/03 07:17:10;;;;;;;3.13;2.20;;;;;;;19.08;47.93;98195.16;4948089;28;20683;-90
2023/04/03 07:19:37;;;;;;;2.40;2.20;;;;;;;18.89;47.84;98161.06;4955783;28;20234;-90
2023/04/03 07:22:04;;;;;;;2.27;2.07;;;;;;;19.00;48.00;98175.16;4940379;28;20237;-90
2023/04/03 07:24:30;;;;;;;2.63;2.30;;;;;;;18.73;47.85;98122.88;4923579;28;20214;-90
2023/04/03 07:26:57;;;;;;;2.53;1.90;;;;;;;19.11;48.21;98191.88;4968593;28;20222;-90
2023/04/03 07:29:23;;;;;;;2.47;2.20;;;;;;;19.00;48.24;98177.72;4918768;28;20308;-90
2023/04/03 07:31:50;;;;;;;2.40;2.20;;;;;;;18.96;48.11;98165.63;4915876;28;20287;-91
2023/04/03 07:34:16;;;;;;;2.30;2.10;;;;;;;19.07;48.52;98192.53;4958438;28;20222;-90
2023/04/03 07:36:43;;;;;;;3.13;2.40;;;;;;;18.93;48.67;98168.03;4922830;28;20251;-91
2023/04/03 07:39:10;;;;;;;2.07;1.90;;;;;;;19.10;48.25;98195.22;4916587;28;20690;-90
2023/04/03 07:41:38;;;;;;;2.37;2.17;;;;;;;18.92;48.75;98158.66;4927211;28;20255;-91
2023/04/03 07:44:05;;;;;;;2.10;1.80;;;;;;;18.80;48.45;98145.31;4956529;28;20239;-90
2023/04/03 07:46:31;;;;;;;2.73;2.20;;;;;;;18.84;48.87;98143.00;4942499;28;20286;-90
2023/04/03 07:48:58;;;;;;;2.10;1.90;;;;;;;19.12;48.30;98204.69;4955700;28;20211;-90
2023/04/03 07:51:26;;;;;;;2.73;2.20;;;;;;;18.94;48.96;98178.28;4916596;28;20238;-90
2023/04/03 07:53:52;;;;;;;2.43;1.93;;;;;;;19.00;48.58;98193.00;4933215;28;20220;-90
2023/04/03 07:56:20;;;;;;;2.50;2.30;;;;;;;18.96;48.77;98181.81;4932198;28;20606;-90
2023/04/03 07:58:46;;;;;;;2.20;1.90;;;;;;;19.01;48.73;98189.69;4937934;28;20656;-90
2023/04/03 08:01:13;;;;;;;2.27;2.03;;;;;;;19.02;48.68;98192.28;4946195;28;20290;-90
2023/04/03 08:03:40;;;;;;;2.70;2.00;;;;;;;18.83;48.72;98156.50;4933589;28;20738;-89
2023/04/03 08:06:08;;;;;;;2.17;2.00;;;;;;;19.22;48.71;98226.41;4973478;28;20203;-90
2023/04/03 08:08:41;;;;;;;3.73;2.00;;;;;;;19.02;49.15;98196.50;4925982;28;20203;-90
2023/04/03 08:11:08;;;;;;;2.33;2.10;;;;;;;19.11;48.99;98208.03;4930376;28;20211;-90
2023/04/03 08:13:35;;;;;;;2.20;1.97;;;;;;;18.83;48.80;98155.66;4971840;28;20227;-90
2023/04/03 08:16:10;;;;;;;2.03;1.80;;;;;;;18.89;49.09;98172.09;4933656;28;20219;-90
2023/04/03 08:18:36;;;;;;;2.17;1.97;;;;;;;19.06;49.22;98201.81;4938404;28;20211;-90
2023/04/03 08:21:10;;;;;;;2.30;2.10;;;;;;;19.04;48.89;98215.31;4923993;28;20208;-90
2023/04/03 08:23:37;;;;;;;2.20;2.00;;;;;;;19.01;49.18;98192.22;4917791;28;20223;-90
2023/04/03 08:26:12;;;;;;;3.30;2.00;;;;;;;18.56;49.08;98111.84;4938845;28;20648;-90
2023/04/03 08:28:38;;;;;;;2.40;2.00;;;;;;;18.87;49.42;98171.16;4963698;28;20208;-90
2023/04/03 08:31:06;;;;;;;2.27;2.10;;;;;;;19.21;49.17;98232.28;4917352;28;20219;-90
2023/04/03 08:33:35;;;;;;;2.87;2.20;;;;;;;19.12;49.25;98212.31;4923832;28;20238;-91
2023/04/03 08:36:04;;;;;;;3.83;2.33;;;;;;;18.87;49.26;98165.19;4914195;28;20230;-90
2023/04/03 08:38:30;;;;;;;2.40;2.17;;;;;;;19.14;49.29;98236.22;4925365;29;20303;-89
2023/04/03 08:41:11;;;;;;;2.77;2.20;;;;;;;19.21;47.35;98239.91;4949225;28;20211;-89
2023/04/03 08:44:11;;;;;;;3.20;2.57;;;;;;;19.01;45.40;98210.06;4934154;28;20220;-89
2023/04/03 08:46:47;;;;;;;4.10;2.87;;;;;;;19.30;44.04;98248.94;4949998;28;20196;-89
2023/04/03 08:49:26;;;;;;;4.13;3.10;;;;;;;18.98;44.52;98197.16;4962776;28;20293;-89
2023/04/03 08:51:53;;;;;;;4.47;2.50;;;;;;;19.19;45.44;98237.28;4936217;28;20605;-89
2023/04/03 08:54:28;;;;;;;4.37;2.23;;;;;;;19.18;45.33;98237.22;4952487;28;20735;-90
2023/04/03 08:56:55;;;;;;;4.40;2.63;;;;;;;18.97;46.00;98203.03;4953202;28;20219;-89
2023/04/03 08:59:28;;;;;;;2.40;2.20;;;;;;;19.29;46.56;98259.06;4918068;28;20214;-88
2023/04/03 09:01:54;;;;;;;3.57;2.40;;;;;;;19.00;46.77;98204.06;4916668;28;20310;-89
2023/04/03 09:04:21;;;;;;;5.53;2.43;;;;;;;19.12;47.52;98221.63;4966159;28;20919;-89
2023/04/03 09:06:54;;;;;;;2.47;2.10;;;;;;;19.06;47.37;98214.56;4915845;28;20203;-91
2023/04/03 09:09:40;;;;;;;4.37;2.27;;;;;;;18.78;48.03;98170.69;4920871;28;20228;-91
2023/04/03 09:12:25;;;;;;;3.80;2.43;;;;;;;19.32;47.84;98266.84;4923738;28;20278;-89
2023/04/03 09:15:14;;;;;;;7.70;2.30;;;;;;;19.02;47.88;98221.97;4936500;28;20204;-89
2023/04/03 09:17:55;;;;;;;4.97;2.50;;;;;;;19.09;48.29;98224.91;4937767;28;20224;-90
2023/04/03 09:20:44;;;;;;;5.37;2.27;;;;;;;19.25;48.17;98249.50;4924647;28;20707;-89
2023/04/03 09:23:29;;;;;;;6.33;2.47;;;;;;;19.35;48.18;98261.91;4941233;28;20753;-90
2023/04/03 09:26:16;;;;;;;3.70;2.40;;;;;;;19.31;48.36;98247.28;4942764;28;20684;-89
2023/04/03 09:28:44;;;;;;;5.83;2.50;;;;;;;19.31;48.71;98248.16;4935650;28;21062;-90
2023/04/03 09:31:23;;;;;;;3.83;2.60;;;;;;;19.37;49.02;98262.88;4935857;28;20651;-89
2023/04/03 09:33:52;;;;;;;3.00;2.17;;;;;;;19.15;49.13;98232.84;4939785;28;20659;-89
2023/04/03 09:36:42;;;;;;;5.63;2.47;;;;;;;19.38;49.08;98259.50;4923716;29;20225;-89
2023/04/03 09:39:16;;;;;;;3.03;2.20;;;;;;;19.22;49.28;98239.13;4954053;28;20759;-89
2023/04/03 09:42:01;;;;;;;4.17;2.27;;;;;;;19.28;49.53;98258.19;4954036;28;20314;-89
2023/04/03 09:44:33;;;;;;;3.97;2.37;;;;;;;19.15;49.61;98225.22;4934744;28;20225;-89
2023/04/03 09:47:00;;;;;;;3.87;2.60;;;;;;;19.02;49.47;98205.03;4924094;28;20254;-90
2023/04/03 09:49:26;;;;;;;6.17;2.57;;;;;;;19.38;49.39;98264.59;4921362;28;20232;-89
2023/04/03 09:51:53;;;;;;;5.13;2.23;;;;;;;19.16;48.80;98236.28;4967345;28;20230;-89
2023/04/03 09:54:37;;;;;;;3.33;2.40;;;;;;;19.20;48.73;98238.19;4972567;28;20212;-89
2023/04/03 09:57:10;;;;;;;4.17;2.40;;;;;;;19.22;48.79;98247.63;4923215;28;20261;-89
2023/04/03 09:59:39;;;;;;;3.97;2.20;;;;;;;19.27;48.90;98251.34;4937005;28;20208;-89
2023/04/03 10:02:06;;;;;;;2.43;2.10;;;;;;;19.36;48.74;98263.69;4911057;28;20267;-89
2023/04/03 10:04:42;;;;;;;3.07;2.17;;;;;;;19.21;48.90;98237.38;4949878;28;20230;-88
2023/04/03 10:07:36;;;;;;;5.20;2.20;;;;;;;19.36;49.40;98266.22;4924136;28;20697;-89
2023/04/03 10:10:17;;;;;;;4.30;2.40;;;;;;;19.29;49.25;98246.31;4932597;28;20430;-89
2023/04/03 10:12:43;;;;;;;4.00;2.33;;;;;;;19.26;49.13;98246.13;4969894;28;20314;-89
2023/04/03 10:15:14;;;;;;;3.07;2.13;;;;;;;18.96;49.00;98194.53;4955670;28;20238;-90
2023/04/03 10:17:43;;;;;;;2.87;2.07;;;;;;;19.36;49.13;98250.94;4947120;28;20223;-90
2023/04/03 10:20:31;;;;;;;5.00;2.10;;;;;;;19.35;49.16;98254.25;4950447;28;20230;-90
2023/04/03 10:23:04;;;;;;;7.73;2.40;;;;;;;19.35;48.98;98241.50;4951437;28;20236;-90
2023/04/03 10:25:36;;;;;;;11.50;2.27;;;;;;;19.36;49.23;98248.38;4946694;28;20287;-90
2023/04/03 10:28:45;;;;;;;2.23;1.90;;;;;;;19.28;49.15;98242.91;4952491;28;20211;-89
2023/04/03 10:31:37;;;;;;;2.50;1.87;;;;;;;19.15;49.21;98216.69;4947718;28;20220;-90
2023/04/03 10:34:23;;;;;;;2.47;2.00;;;;;;;19.35;49.37;98249.16;4918426;28;20226;-88
2023/04/03 10:36:58;;;;;;;2.47;1.90;;;;;;;19.20;49.29;98225.44;4925280;28;20227;-89
2023/04/03 10:39:37;;;;;;;2.83;2.20;;;;;;;19.36;49.69;98250.94;4954865;28;20215;-89
2023/04/03 10:42:32;;;;;;;2.93;2.10;;;;;;;19.36;49.50;98250.94;4967589;28;20313;-89
2023/04/03 10:45:08;;;;;;;2.73;2.10;;;;;;;18.78;49.48;98144.34;4951433;28;20287;-89
2023/04/03 10:48:08;;;;;;;6.63;2.10;;;;;;;19.36;49.57;98241.59;4965471;28;20586;-91
2023/04/03 10:51:11;;;;;;;2.00;1.70;;;;;;;19.38;49.67;98239.13;4935413;28;20212;-89
2023/04/03 10:53:55;;;;;;;2.37;2.13;;;;;;;19.37;49.64;98235.72;4939723;28;20581;-89
2023/04/03 10:56:39;;;;;;;3.93;2.20;;;;;;;19.38;49.60;98240.00;4968426;28;20290;-89
2023/04/03 10:59:27;;;;;;;2.57;2.00;;;;;;;19.06;49.62;98181.44;4937468;28;20279;-89
2023/04/03 11:02:00;;;;;;;2.47;1.80;;;;;;;19.37;49.63;98234.84;4920959;28;20250;-89
2023/04/03 11:04:28;;;;;;;3.57;2.30;;;;;;;19.19;49.71;98205.88;4971366;28;20210;-89
2023/04/03 11:07:15;;;;;;;3.07;2.13;;;;;;;19.40;49.91;98234.97;4935427;28;20207;-89
2023/04/03 11:09:43;;;;;;;4.13;2.40;;;;;;;19.18;49.56;98194.78;4956811;28;20262;-89
2023/04/03 11:12:14;;;;;;;4.80;2.37;;;;;;;19.20;47.08;98193.19;4930459;28;20262;-89
2023/04/03 11:14:41;;;;;;;3.13;2.43;;;;;;;19.26;47.29;98202.81;4948457;28;20851;-90
2023/04/03 11:17:16;;;;;;;5.13;2.07;;;;;;;19.07;47.99;98173.00;4917503;28;20224;-89
2023/04/03 11:19:51;;;;;;;2.47;2.10;;;;;;;19.04;48.43;98156.72;4920871;28;20209;-89
2023/04/03 11:22:26;;;;;;;2.47;2.00;;;;;;;19.40;48.56;98218.03;4952396;28;20687;-89
2023/04/03 11:25:03;;;;;;;4.30;2.20;;;;;;;19.10;48.99;98172.28;4952351;28;20223;-89
2023/04/03 11:27:33;;;;;;;3.57;2.10;;;;;;;19.41;49.20;98216.31;4957013;28;20218;-89
2023/04/03 11:30:00;;;;;;;3.37;2.30;;;;;;;19.08;49.46;98169.66;4940642;28;20239;-89
2023/04/03 11:32:54;;;;;;;3.80;2.10;;;;;;;19.39;47.20;98223.91;4937928;28;20238;-89
2023/04/03 11:35:21;;;;;;;3.40;2.03;;;;;;;19.26;41.74;98193.50;4951658;28;20203;-89
2023/04/03 11:37:49;;;;;;;5.93;2.50;;;;;;;19.12;39.17;98181.75;4912837;28;20278;-89
2023/04/03 11:40:15;;;;;;;5.03;2.30;;;;;;;19.32;38.78;98204.03;4928133;28;20242;-90
2023/04/03 11:42:45;;;;;;;6.10;2.57;;;;;;;19.26;39.10;98201.16;4970041;28;20227;-89
2023/04/03 11:45:26;;;;;;;3.30;2.20;;;;;;;19.30;41.08;98202.22;4917592;28;20684;-90
2023/04/03 11:48:01;;;;;;;3.13;2.30;;;;;;;19.19;42.17;98178.69;4967957;28;20640;-89